Time;durP1;ratioP1;P1;durP2;ratioP2;P2;SDS_P1;SDS_P2;PMS_P1;PMS_P2;Temp;Humidity;BMP_temperature;BMP_pressure;BME280_temperature;BME280_humidity;BME280_pressure;Samples;Min_cycle;Max_cycle;Signal;HPM_P1;HPM_P2
2022/01/08 00:01:25;;;;;;;;;;;4.10;97.20;;;;;;5048372;28;19917;-68
2022/01/08 00:03:51;;;;;;;;;;;4.10;97.20;;;;;;5050085;28;19913;-69
2022/01/08 00:06:17;;;;;;;;;;;4.10;97.20;;;;;;5053597;28;19999;-69
2022/01/08 00:08:43;;;;;;;;;;;4.10;97.20;;;;;;5051227;28;20054;-69
2022/01/08 00:11:13;;;;;;;;;;;4.10;97.30;;;;;;5047150;28;19909;-68
2022/01/08 00:13:40;;;;;;;;;;;4.10;97.30;;;;;;5051020;28;19924;-68
2022/01/08 00:16:05;;;;;;;;;;;4.10;97.20;;;;;;5048918;28;19965;-69
2022/01/08 00:18:31;;;;;;;;;;;4.10;97.30;;;;;;5056728;28;19909;-69
2022/01/08 00:20:57;;;;;;;;;;;4.10;97.20;;;;;;5032658;28;20354;-69
2022/01/08 00:23:22;;;;;;;;;;;4.10;97.30;;;;;;5048598;28;19916;-68
2022/01/08 00:25:47;;;;;;;;;;;4.10;97.30;;;;;;5055735;28;20420;-69
2022/01/08 00:28:13;;;;;;;;;;;4.10;97.20;;;;;;5048767;28;20003;-69
2022/01/08 00:30:38;;;;;;;;;;;4.10;97.20;;;;;;5058823;28;19947;-68
2022/01/08 00:33:04;;;;;;;;;;;4.10;97.20;;;;;;5031560;28;19916;-69
2022/01/08 00:35:31;;;;;;;;;;;4.10;97.20;;;;;;5050948;28;19924;-69
2022/01/08 00:37:57;;;;;;;;;;;4.10;97.20;;;;;;5063487;28;19919;-68
2022/01/08 00:40:23;;;;;;;;;;;4.10;97.20;;;;;;5049728;28;19917;-68
2022/01/08 00:42:48;;;;;;;;;;;4.10;97.10;;;;;;5055554;28;20023;-68
2022/01/08 00:45:14;;;;;;;;;;;4.10;97.10;;;;;;5049547;28;20008;-69
2022/01/08 00:47:39;;;;;;;;;;;4.10;97.10;;;;;;5048307;28;19966;-68
2022/01/08 00:50:06;;;;;;;;;;;4.10;97.10;;;;;;5051062;28;19923;-68
2022/01/08 00:52:31;;;;;;;;;;;4.10;97.20;;;;;;5046540;28;19912;-69
2022/01/08 00:54:57;;;;;;;;;;;4.10;97.10;;;;;;5052588;28;19917;-69
2022/01/08 00:57:22;;;;;;;;;;;4.20;97.10;;;;;;5056061;28;20364;-68
2022/01/08 00:59:48;;;;;;;;;;;4.20;97.10;;;;;;5047048;28;19913;-69
2022/01/08 01:02:13;;;;;;;;;;;4.20;97.00;;;;;;5048881;28;19921;-69
2022/01/08 01:04:39;;;;;;;;;;;4.20;97.00;;;;;;5046006;28;19948;-69
2022/01/08 01:07:04;;;;;;;;;;;4.20;97.00;;;;;;5051209;28;20046;-68
2022/01/08 01:09:30;;;;;;;;;;;4.20;97.00;;;;;;5047851;28;20546;-69
2022/01/08 01:11:57;;;;;;;;;;;4.20;96.90;;;;;;5031973;28;19921;-69
2022/01/08 01:14:23;;;;;;;;;;;4.20;96.90;;;;;;5047502;28;19921;-69
2022/01/08 01:16:49;;;;;;;;;;;4.20;96.90;;;;;;5032877;28;20358;-68
2022/01/08 01:19:14;;;;;;;;;;;4.20;96.90;;;;;;5055611;28;19954;-69
2022/01/08 01:21:40;;;;;;;;;;;4.10;96.90;;;;;;5044089;28;20360;-68
2022/01/08 01:24:12;;;;;;;;;;;4.20;96.90;;;;;;5049627;28;19974;-68
2022/01/08 01:26:44;;;;;;;;;;;4.10;96.90;;;;;;5049529;28;20337;-69
2022/01/08 01:29:32;;;;;;;;;;;4.10;96.90;;;;;;5047700;28;19935;-69
2022/01/08 01:48:36;;;;;;;;;;;4.10;96.90;;;;;;5048837;28;20414;-69
2022/01/08 01:51:02;;;;;;;;;;;4.10;96.80;;;;;;5032258;28;19924;-69
2022/01/08 01:53:27;;;;;;;;;;;4.00;96.80;;;;;;5048119;28;19924;-68
2022/01/08 01:55:53;;;;;;;;;;;4.00;96.80;;;;;;5052538;28;19920;-69
2022/01/08 01:58:18;;;;;;;;;;;4.00;96.80;;;;;;5058657;28;19909;-69
2022/01/08 02:00:45;;;;;;;;;;;4.00;96.80;;;;;;5029003;28;19913;-69
2022/01/08 02:03:11;;;;;;;;;;;4.00;96.80;;;;;;5034921;28;19943;-69
2022/01/08 02:05:36;;;;;;;;;;;4.00;96.80;;;;;;5039782;28;20337;-69
2022/01/08 02:08:02;;;;;;;;;;;4.00;96.80;;;;;;5066380;28;19917;-68
2022/01/08 02:10:27;;;;;;;;;;;4.00;96.80;;;;;;5055753;28;20369;-69
2022/01/08 02:12:53;;;;;;;;;;;3.90;96.70;;;;;;5052337;28;19927;-69
2022/01/08 02:15:18;;;;;;;;;;;3.90;96.70;;;;;;5055968;28;19912;-68
2022/01/08 02:17:44;;;;;;;;;;;3.90;96.70;;;;;;5051775;28;19913;-69
2022/01/08 02:20:10;;;;;;;;;;;4.00;96.70;;;;;;5052907;28;20309;-69
2022/01/08 02:22:36;;;;;;;;;;;3.90;96.70;;;;;;5060207;28;20031;-68
2022/01/08 02:25:01;;;;;;;;;;;3.90;96.70;;;;;;5033951;28;20534;-69
2022/01/08 02:27:27;;;;;;;;;;;3.90;96.70;;;;;;5051969;28;19999;-69
2022/01/08 02:29:53;;;;;;;;;;;3.90;96.70;;;;;;5038327;28;19916;-69
2022/01/08 02:32:19;;;;;;;;;;;3.90;97.10;;;;;;5055992;28;20453;-69
2022/01/08 02:34:46;;;;;;;;;;;3.90;96.80;;;;;;5052398;28;20354;-68
2022/01/08 02:37:13;;;;;;;;;;;3.90;96.70;;;;;;5048549;28;20039;-69
2022/01/08 02:39:42;;;;;;;;;;;3.90;96.70;;;;;;5052869;28;19936;-69
2022/01/08 02:42:09;;;;;;;;;;;3.90;96.60;;;;;;5050151;28;19917;-69
2022/01/08 02:44:34;;;;;;;;;;;3.90;96.70;;;;;;5051958;28;19920;-69
2022/01/08 02:47:01;;;;;;;;;;;3.90;96.60;;;;;;5049411;28;21415;-69
2022/01/08 02:49:26;;;;;;;;;;;3.80;96.60;;;;;;5052054;28;19916;-69
2022/01/08 02:51:52;;;;;;;;;;;3.80;96.60;;;;;;5051742;28;19924;-69
2022/01/08 02:54:18;;;;;;;;;;;3.80;96.60;;;;;;5057759;28;19954;-69
2022/01/08 02:56:44;;;;;;;;;;;3.80;96.60;;;;;;5057038;28;19921;-68
2022/01/08 02:59:10;;;;;;;;;;;3.80;96.60;;;;;;5048712;28;19921;-68
2022/01/08 03:01:36;;;;;;;;;;;3.80;96.60;;;;;;5050012;28;19913;-69
2022/01/08 03:04:02;;;;;;;;;;;3.80;96.60;;;;;;5029894;28;19913;-69
2022/01/08 03:06:28;;;;;;;;;;;3.80;96.60;;;;;;5053169;28;19971;-69
2022/01/08 03:08:53;;;;;;;;;;;3.80;96.60;;;;;;5049594;28;19913;-69
2022/01/08 03:11:19;;;;;;;;;;;3.80;96.60;;;;;;5068095;28;19919;-69
2022/01/08 03:13:44;;;;;;;;;;;3.80;96.60;;;;;;5049382;28;19928;-69
2022/01/08 03:16:10;;;;;;;;;;;3.80;96.50;;;;;;5066427;28;19928;-69
2022/01/08 03:18:37;;;;;;;;;;;3.80;96.60;;;;;;5051365;28;20350;-69
2022/01/08 03:21:13;;;;;;;;;;;3.70;96.80;;;;;;5066577;28;19956;-69
2022/01/08 03:23:58;;;;;;;;;;;3.70;96.50;;;;;;5049262;28;19975;-69
2022/01/08 03:26:25;;;;;;;;;;;3.70;96.50;;;;;;5053058;28;19913;-69
2022/01/08 03:28:50;;;;;;;;;;;3.70;96.50;;;;;;5048945;28;19995;-69
2022/01/08 03:31:16;;;;;;;;;;;3.70;96.50;;;;;;5043210;28;20000;-69
2022/01/08 03:33:43;;;;;;;;;;;3.70;96.50;;;;;;5048449;28;19968;-69
2022/01/08 03:36:09;;;;;;;;;;;3.70;96.50;;;;;;5051228;28;19991;-69
2022/01/08 03:38:34;;;;;;;;;;;3.70;96.50;;;;;;5050889;28;19925;-69
2022/01/08 03:41:00;;;;;;;;;;;3.70;96.50;;;;;;5049670;28;20675;-69
2022/01/08 03:43:26;;;;;;;;;;;3.70;96.50;;;;;;5051976;28;19991;-68
2022/01/08 03:45:51;;;;;;;;;;;3.70;96.50;;;;;;5047345;28;19970;-69
2022/01/08 03:50:43;;;;;;;;;;;3.70;96.50;;;;;;5048540;28;19917;-69
2022/01/08 03:53:08;;;;;;;;;;;3.70;96.50;;;;;;5050455;28;19959;-68
2022/01/08 03:55:34;;;;;;;;;;;3.70;96.50;;;;;;5052748;28;19925;-69
2022/01/08 03:57:59;;;;;;;;;;;3.70;96.50;;;;;;5050664;28;19991;-69
2022/01/08 04:00:25;;;;;;;;;;;3.70;96.50;;;;;;5047152;28;20358;-69
2022/01/08 04:02:52;;;;;;;;;;;3.70;96.60;;;;;;5050018;28;19979;-69
2022/01/08 04:05:17;;;;;;;;;;;3.60;96.50;;;;;;5047383;28;20397;-68
2022/01/08 04:07:43;;;;;;;;;;;3.60;96.60;;;;;;5050870;28;19913;-69
2022/01/08 04:10:09;;;;;;;;;;;3.70;96.50;;;;;;5030325;28;19925;-68
2022/01/08 04:12:40;;;;;;;;;;;3.70;96.50;;;;;;5051781;28;19920;-68
2022/01/08 04:15:20;;;;;;;;;;;3.70;96.50;;;;;;5049080;28;19960;-68
2022/01/08 04:17:45;;;;;;;;;;;3.70;96.50;;;;;;5050110;28;19912;-69
2022/01/08 04:20:11;;;;;;;;;;;3.70;96.60;;;;;;5049595;28;19920;-68
2022/01/08 04:22:36;;;;;;;;;;;3.70;96.60;;;;;;5050252;28;20358;-68
2022/01/08 04:25:02;;;;;;;;;;;3.70;96.60;;;;;;5049851;28;19943;-68
2022/01/08 04:27:27;;;;;;;;;;;3.70;96.60;;;;;;5048247;28;19928;-69
2022/01/08 04:29:53;;;;;;;;;;;3.70;96.60;;;;;;5048806;28;20370;-69
2022/01/08 04:32:18;;;;;;;;;;;3.70;96.60;;;;;;5043058;28;20008;-68
2022/01/08 04:34:44;;;;;;;;;;;3.60;96.60;;;;;;5047904;28;20381;-69
2022/01/08 04:37:09;;;;;;;;;;;3.70;96.50;;;;;;5026430;28;19913;-68
2022/01/08 04:39:35;;;;;;;;;;;3.60;96.60;;;;;;5046240;28;19909;-68
2022/01/08 04:42:00;;;;;;;;;;;3.70;96.50;;;;;;5043034;28;19917;-69
2022/01/08 04:44:26;;;;;;;;;;;3.60;96.50;;;;;;5048914;28;19919;-69
2022/01/08 04:46:51;;;;;;;;;;;3.60;96.50;;;;;;5045587;28;19967;-68
2022/01/08 04:49:17;;;;;;;;;;;3.60;96.50;;;;;;5030462;28;20015;-68
2022/01/08 04:51:42;;;;;;;;;;;3.60;96.50;;;;;;5052937;28;19924;-69
2022/01/08 04:54:08;;;;;;;;;;;3.60;96.50;;;;;;5049197;28;20373;-69
2022/01/08 04:56:34;;;;;;;;;;;3.60;96.60;;;;;;5050269;28;20040;-68
2022/01/08 04:58:59;;;;;;;;;;;3.60;96.50;;;;;;5048774;28;19909;-69
2022/01/08 05:01:25;;;;;;;;;;;3.60;96.50;;;;;;5049111;28;19959;-68
2022/01/08 05:03:50;;;;;;;;;;;3.60;96.50;;;;;;5034484;28;19909;-69
2022/01/08 05:06:16;;;;;;;;;;;3.60;96.50;;;;;;5032174;28;19913;-69
2022/01/08 05:08:41;;;;;;;;;;;3.50;96.50;;;;;;5029085;28;19951;-68
2022/01/08 05:11:07;;;;;;;;;;;3.60;96.50;;;;;;5050469;28;19912;-68
2022/01/08 05:13:32;;;;;;;;;;;3.60;96.50;;;;;;5047448;28;19952;-69
2022/01/08 05:15:59;;;;;;;;;;;3.50;96.50;;;;;;5050968;28;19913;-68
2022/01/08 05:18:25;;;;;;;;;;;3.50;96.50;;;;;;5028635;28;19913;-68
2022/01/08 05:20:57;;;;;;;;;;;3.50;96.50;;;;;;5065713;28;19974;-69
2022/01/08 05:23:22;;;;;;;;;;;3.60;96.50;;;;;;5048888;28;19970;-69
2022/01/08 05:25:48;;;;;;;;;;;3.50;96.50;;;;;;5034372;28;19913;-69
2022/01/08 05:28:14;;;;;;;;;;;3.50;96.50;;;;;;5047669;28;20247;-69
2022/01/08 05:30:39;;;;;;;;;;;3.50;96.50;;;;;;5049383;28;20003;-68
2022/01/08 05:33:05;;;;;;;;;;;3.50;96.50;;;;;;5047803;28;19917;-69
2022/01/08 05:35:30;;;;;;;;;;;3.50;96.50;;;;;;5047805;28;19967;-68
2022/01/08 05:37:56;;;;;;;;;;;3.50;96.40;;;;;;5046133;28;19917;-69
2022/01/08 05:40:22;;;;;;;;;;;3.50;96.40;;;;;;5043876;28;19917;-69
2022/01/08 05:42:47;;;;;;;;;;;3.50;96.40;;;;;;5049651;28;19955;-69
2022/01/08 05:45:13;;;;;;;;;;;3.40;96.40;;;;;;5035347;28;19948;-69
2022/01/08 05:47:38;;;;;;;;;;;3.40;96.40;;;;;;5054259;28;19912;-69
2022/01/08 05:50:05;;;;;;;;;;;3.50;96.30;;;;;;5051644;28;19928;-69
2022/01/08 05:52:31;;;;;;;;;;;3.50;96.40;;;;;;5054074;28;19912;-69
2022/01/08 05:54:56;;;;;;;;;;;3.50;96.40;;;;;;5049779;28;20247;-69
2022/01/08 05:57:22;;;;;;;;;;;3.50;96.30;;;;;;5053476;28;19917;-68
2022/01/08 05:59:47;;;;;;;;;;;3.40;96.30;;;;;;5033118;28;20385;-68
2022/01/08 06:02:13;;;;;;;;;;;3.40;96.30;;;;;;5054240;28;19913;-69
2022/01/08 06:04:38;;;;;;;;;;;3.40;96.30;;;;;;5050822;28;19924;-68
2022/01/08 06:07:04;;;;;;;;;;;3.40;96.30;;;;;;5053069;28;19917;-68
2022/01/08 06:09:30;;;;;;;;;;;3.40;96.30;;;;;;5050405;28;19916;-69
2022/01/08 06:11:56;;;;;;;;;;;3.40;96.30;;;;;;5052040;28;19959;-69
2022/01/08 06:14:22;;;;;;;;;;;3.40;96.30;;;;;;5051526;28;19978;-68
2022/01/08 06:16:48;;;;;;;;;;;3.40;96.30;;;;;;5050984;28;20300;-69
2022/01/08 06:19:14;;;;;;;;;;;3.40;96.30;;;;;;5053326;28;20353;-69
2022/01/08 06:21:40;;;;;;;;;;;3.40;96.30;;;;;;5051507;28;19982;-69
2022/01/08 06:24:06;;;;;;;;;;;3.40;96.30;;;;;;5056523;28;19962;-68
2022/01/08 06:26:32;;;;;;;;;;;3.40;96.20;;;;;;5053771;28;19923;-69
2022/01/08 06:28:57;;;;;;;;;;;3.40;96.30;;;;;;5053182;28;19920;-69
2022/01/08 06:31:23;;;;;;;;;;;3.30;96.30;;;;;;5050444;28;20400;-69
2022/01/08 06:33:49;;;;;;;;;;;3.40;96.20;;;;;;5051911;28;20027;-69
2022/01/08 06:36:17;;;;;;;;;;;3.30;96.20;;;;;;5049398;28;19940;-68
2022/01/08 06:38:43;;;;;;;;;;;3.30;96.30;;;;;;5049847;28;20003;-68
2022/01/08 06:41:08;;;;;;;;;;;3.30;96.20;;;;;;5049646;28;19995;-68
2022/01/08 06:43:34;;;;;;;;;;;3.30;96.50;;;;;;5052076;28;19920;-68
2022/01/08 06:45:59;;;;;;;;;;;3.30;96.20;;;;;;5048717;28;19917;-68
2022/01/08 06:48:25;;;;;;;;;;;3.30;96.20;;;;;;5066745;28;19913;-68
2022/01/08 06:50:50;;;;;;;;;;;3.30;96.20;;;;;;5051325;28;20327;-68
2022/01/08 06:53:16;;;;;;;;;;;3.30;96.20;;;;;;5052887;28;19913;-69
2022/01/08 06:55:41;;;;;;;;;;;3.30;96.20;;;;;;5052559;28;19917;-69
2022/01/08 06:58:07;;;;;;;;;;;3.30;96.20;;;;;;5049177;28;19921;-69
2022/01/08 07:00:32;;;;;;;;;;;3.30;96.20;;;;;;5051486;28;20297;-69
2022/01/08 07:02:59;;;;;;;;;;;3.30;96.20;;;;;;5048598;28;19921;-68
2022/01/08 07:05:25;;;;;;;;;;;3.30;96.20;;;;;;5033440;28;20557;-69
2022/01/08 07:07:50;;;;;;;;;;;3.30;96.20;;;;;;5047162;28;19909;-68
2022/01/08 07:10:16;;;;;;;;;;;3.30;96.20;;;;;;5050584;28;19919;-69
2022/01/08 07:12:42;;;;;;;;;;;3.30;96.20;;;;;;5048231;28;19912;-68
2022/01/08 07:15:07;;;;;;;;;;;3.30;96.20;;;;;;5050605;28;19947;-69
2022/01/08 07:17:33;;;;;;;;;;;3.30;96.20;;;;;;5050116;28;19920;-68
2022/01/08 07:19:58;;;;;;;;;;;3.30;96.20;;;;;;5050869;28;19909;-68
2022/01/08 07:22:24;;;;;;;;;;;3.30;96.20;;;;;;5048652;28;19913;-69
2022/01/08 07:24:49;;;;;;;;;;;3.30;96.20;;;;;;5042892;28;19912;-68
2022/01/08 07:27:15;;;;;;;;;;;3.30;96.20;;;;;;5051199;28;19913;-68
2022/01/08 07:29:40;;;;;;;;;;;3.30;96.30;;;;;;5063705;28;19913;-68
2022/01/08 07:32:06;;;;;;;;;;;3.30;96.30;;;;;;5051817;28;19920;-68
2022/01/08 07:34:31;;;;;;;;;;;3.30;96.30;;;;;;5034160;28;19955;-68
2022/01/08 07:36:57;;;;;;;;;;;3.30;96.30;;;;;;5050905;28;19913;-68
2022/01/08 07:39:22;;;;;;;;;;;3.30;96.30;;;;;;5029745;28;20344;-68
2022/01/08 07:41:48;;;;;;;;;;;3.30;96.30;;;;;;5050697;28;19916;-69
2022/01/08 07:44:13;;;;;;;;;;;3.30;96.30;;;;;;5048528;28;19958;-68
2022/01/08 07:46:39;;;;;;;;;;;3.30;96.30;;;;;;5055019;28;20263;-68
2022/01/08 07:49:04;;;;;;;;;;;3.40;96.30;;;;;;5040705;28;20107;-69
2022/01/08 07:51:30;;;;;;;;;;;3.30;96.30;;;;;;5046131;28;19979;-68
2022/01/08 07:53:55;;;;;;;;;;;3.30;96.40;;;;;;5044340;28;19925;-68
2022/01/08 07:56:21;;;;;;;;;;;3.30;96.30;;;;;;5048129;28;19917;-68
2022/01/08 07:58:46;;;;;;;;;;;3.30;96.30;;;;;;5046212;28;20381;-68
2022/01/08 08:01:12;;;;;;;;;;;3.30;96.30;;;;;;5051040;28;19913;-68
2022/01/08 08:03:37;;;;;;;;;;;3.30;96.30;;;;;;5049051;28;19916;-68
2022/01/08 08:06:03;;;;;;;;;;;3.30;96.30;;;;;;5048070;28;20373;-68
2022/01/08 08:08:28;;;;;;;;;;;3.30;96.30;;;;;;5050896;28;19916;-69
2022/01/08 08:10:54;;;;;;;;;;;3.30;96.30;;;;;;5047084;28;19920;-69
2022/01/08 08:13:21;;;;;;;;;;;3.30;96.30;;;;;;5046349;28;20553;-68
2022/01/08 08:15:47;;;;;;;;;;;3.30;96.30;;;;;;5048288;28;19916;-69
2022/01/08 08:18:13;;;;;;;;;;;3.30;96.30;;;;;;5059374;28;19916;-68
2022/01/08 08:20:39;;;;;;;;;;;3.30;96.30;;;;;;5047493;28;19915;-68
2022/01/08 08:23:04;;;;;;;;;;;3.40;96.30;;;;;;5043865;28;19917;-69
2022/01/08 08:25:29;;;;;;;;;;;3.30;96.40;;;;;;5052546;28;20642;-69
2022/01/08 08:27:55;;;;;;;;;;;3.40;96.40;;;;;;5048960;28;19921;-68
2022/01/08 08:30:21;;;;;;;;;;;3.30;96.30;;;;;;5044123;28;19916;-69
2022/01/08 08:32:47;;;;;;;;;;;3.30;96.30;;;;;;5048559;28;19909;-69
2022/01/08 08:35:12;;;;;;;;;;;3.30;96.40;;;;;;5046407;28;20552;-69
2022/01/08 08:37:38;;;;;;;;;;;3.40;96.30;;;;;;5050915;28;19999;-68
2022/01/08 08:40:03;;;;;;;;;;;3.40;96.40;;;;;;5050609;28;20334;-68
2022/01/08 08:42:29;;;;;;;;;;;3.40;96.30;;;;;;5047559;28;19921;-69
2022/01/08 08:44:54;;;;;;;;;;;3.40;96.30;;;;;;5050663;28;19963;-69
2022/01/08 08:47:20;;;;;;;;;;;3.50;96.30;;;;;;5047356;28;20348;-68
2022/01/08 08:49:45;;;;;;;;;;;3.40;96.30;;;;;;5047038;28;19920;-68
2022/01/08 08:52:11;;;;;;;;;;;3.50;96.60;;;;;;5044523;28;20444;-68
2022/01/08 08:54:39;;;;;;;;;;;3.40;96.30;;;;;;5048924;28;19928;-68
2022/01/08 08:57:05;;;;;;;;;;;3.40;96.40;;;;;;5047061;28;19913;-68
2022/01/08 08:59:31;;;;;;;;;;;3.40;96.40;;;;;;5048893;28;19913;-69
2022/01/08 09:01:57;;;;;;;;;;;3.50;96.40;;;;;;5048997;28;19920;-69
2022/01/08 09:04:23;;;;;;;;;;;3.50;96.40;;;;;;5033273;28;19959;-68
2022/01/08 09:06:49;;;;;;;;;;;3.50;96.40;;;;;;5047500;28;19973;-68
2022/01/08 09:09:14;;;;;;;;;;;3.50;96.40;;;;;;5047380;28;19909;-68
2022/01/08 09:11:40;;;;;;;;;;;3.40;96.40;;;;;;5046974;28;19913;-69
2022/01/08 09:14:06;;;;;;;;;;;3.40;96.50;;;;;;5050022;28;19920;-68
2022/01/08 09:16:33;;;;;;;;;;;3.50;96.50;;;;;;5049488;28;19913;-68
2022/01/08 09:18:59;;;;;;;;;;;3.40;96.50;;;;;;5046475;28;20027;-68
2022/01/08 09:21:24;;;;;;;;;;;3.40;96.60;;;;;;5032050;28;19912;-68
2022/01/08 09:23:50;;;;;;;;;;;3.50;96.50;;;;;;5047612;28;19919;-68
2022/01/08 09:26:16;;;;;;;;;;;3.40;96.50;;;;;;5050133;28;19955;-68
2022/01/08 09:28:41;;;;;;;;;;;3.40;96.60;;;;;;5046802;28;19955;-68
2022/01/08 09:31:07;;;;;;;;;;;3.50;96.60;;;;;;5050098;28;20393;-68
2022/01/08 09:33:33;;;;;;;;;;;3.40;96.70;;;;;;5045552;28;19924;-68
2022/01/08 09:35:59;;;;;;;;;;;3.40;96.70;;;;;;5047508;28;20031;-68
2022/01/08 09:38:24;;;;;;;;;;;3.40;96.70;;;;;;5043147;28;20481;-69
2022/01/08 09:40:50;;;;;;;;;;;3.50;96.70;;;;;;5049268;28;19909;-68
2022/01/08 09:43:16;;;;;;;;;;;3.50;96.70;;;;;;5045359;28;19921;-69
2022/01/08 09:45:43;;;;;;;;;;;3.50;96.70;;;;;;5042564;28;20022;-69
2022/01/08 09:48:08;;;;;;;;;;;3.50;96.70;;;;;;5041908;28;19944;-68
2022/01/08 09:50:34;;;;;;;;;;;3.50;96.70;;;;;;5045518;28;20592;-68
2022/01/08 09:52:59;;;;;;;;;;;3.60;96.70;;;;;;5047423;28;19940;-68
2022/01/08 09:55:26;;;;;;;;;;;3.60;96.70;;;;;;5033928;28;20377;-69
2022/01/08 09:57:52;;;;;;;;;;;3.60;96.60;;;;;;5047550;28;19916;-68
2022/01/08 10:00:19;;;;;;;;;;;3.60;96.70;;;;;;5043611;28;20375;-68
2022/01/08 10:02:44;;;;;;;;;;;3.60;96.70;;;;;;5040147;28;20439;-68
2022/01/08 10:05:17;;;;;;;;;;;3.60;96.70;;;;;;5039987;28;19951;-69
2022/01/08 10:07:55;;;;;;;;;;;3.60;96.70;;;;;;5049919;28;19917;-69
2022/01/08 10:10:21;;;;;;;;;;;3.60;96.70;;;;;;5046404;28;19917;-68
2022/01/08 10:12:48;;;;;;;;;;;3.60;96.80;;;;;;5048527;28;20273;-68
2022/01/08 10:17:59;;;;;;;;;;;3.60;96.70;;;;;;5040882;28;20383;-68
2022/01/08 10:20:28;;;;;;;;;;;3.60;96.70;;;;;;5043815;28;19916;-68
2022/01/08 10:23:09;;;;;;;;;;;3.60;96.70;;;;;;5045600;28;19920;-68
2022/01/08 10:25:34;;;;;;;;;;;3.60;96.80;;;;;;5041985;28;20354;-68
2022/01/08 10:28:00;;;;;;;;;;;3.70;96.70;;;;;;5044154;28;19947;-68
2022/01/08 10:30:26;;;;;;;;;;;3.70;96.80;;;;;;5042718;28;19923;-69
2022/01/08 10:32:55;;;;;;;;;;;3.70;96.80;;;;;;5047438;28;20523;-69
2022/01/08 10:35:41;;;;;;;;;;;3.70;96.80;;;;;;5045908;28;20103;-68
2022/01/08 10:38:06;;;;;;;;;;;3.70;96.80;;;;;;5052034;28;20577;-68
2022/01/08 10:40:32;;;;;;;;;;;3.70;96.80;;;;;;5047614;28;19944;-68
2022/01/08 10:42:59;;;;;;;;;;;3.80;96.70;;;;;;5050508;28;19909;-69
2022/01/08 10:45:25;;;;;;;;;;;3.80;96.60;;;;;;5049557;28;20444;-68
2022/01/08 10:48:02;;;;;;;;;;;3.80;96.60;;;;;;5052603;28;19912;-68
2022/01/08 10:50:28;;;;;;;;;;;3.80;96.60;;;;;;5032356;28;19916;-68
2022/01/08 10:52:53;;;;;;;;;;;3.90;96.70;;;;;;5051179;28;19916;-69
2022/01/08 10:55:31;;;;;;;;;;;3.90;96.70;;;;;;5052365;28;19987;-68
2022/01/08 10:57:57;;;;;;;;;;;3.90;96.60;;;;;;5037366;28;20405;-69
2022/01/08 11:00:29;;;;;;;;;;;4.00;96.60;;;;;;5053654;28;20016;-68
2022/01/08 11:02:55;;;;;;;;;;;3.90;96.60;;;;;;5050260;28;19909;-68
2022/01/08 11:05:20;;;;;;;;;;;4.00;96.60;;;;;;5050120;28;19923;-68
2022/01/08 11:07:46;;;;;;;;;;;4.00;96.60;;;;;;5044522;28;19920;-68
2022/01/08 11:10:16;;;;;;;;;;;4.00;96.70;;;;;;5050372;28;20255;-68
2022/01/08 11:12:44;;;;;;;;;;;4.00;96.70;;;;;;5042801;28;19917;-68
2022/01/08 11:17:40;;;;;;;;;;;4.00;96.60;;;;;;5048717;28;20007;-68
2022/01/08 11:20:08;;;;;;;;;;;4.00;96.60;;;;;;5050281;28;20003;-69
2022/01/08 11:22:35;;;;;;;;;;;4.10;97.00;;;;;;5047120;28;19932;-69
2022/01/08 11:25:11;;;;;;;;;;;4.10;96.60;;;;;;5051306;28;19913;-68
2022/01/08 11:27:55;;;;;;;;;;;4.10;96.60;;;;;;5048873;28;19919;-68
2022/01/08 11:30:22;;;;;;;;;;;4.10;96.60;;;;;;5051581;28;19917;-69
2022/01/08 11:32:49;;;;;;;;;;;4.10;96.60;;;;;;5049196;28;19913;-68
2022/01/08 11:35:15;;;;;;;;;;;4.10;96.50;;;;;;5051545;28;20385;-68
2022/01/08 11:37:46;;;;;;;;;;;4.10;96.60;;;;;;5045238;28;19982;-68
2022/01/08 11:40:13;;;;;;;;;;;4.20;96.60;;;;;;5047454;28;20524;-68
2022/01/08 11:42:39;;;;;;;;;;;4.20;96.50;;;;;;5025920;28;19960;-68
2022/01/08 11:45:05;;;;;;;;;;;4.20;96.60;;;;;;5047768;28;19989;-68
2022/01/08 11:47:31;;;;;;;;;;;4.20;96.60;;;;;;5043474;28;19925;-69
2022/01/08 11:50:01;;;;;;;;;;;4.20;96.50;;;;;;5050517;28;20285;-69
2022/01/08 11:52:26;;;;;;;;;;;4.20;96.60;;;;;;5051494;28;19913;-68
2022/01/08 11:54:52;;;;;;;;;;;4.30;96.50;;;;;;5048582;28;19961;-69
2022/01/08 11:57:18;;;;;;;;;;;4.30;96.60;;;;;;5051818;28;19917;-68
2022/01/08 11:59:45;;;;;;;;;;;4.30;96.60;;;;;;5044430;28;20429;-68
2022/01/08 12:02:12;;;;;;;;;;;4.30;96.50;;;;;;5053093;28;19948;-68
2022/01/08 12:04:40;;;;;;;;;;;4.30;96.50;;;;;;5046848;28;19912;-68
2022/01/08 12:07:25;;;;;;;;;;;4.40;96.50;;;;;;5049552;28;19912;-69
2022/01/08 12:10:16;;;;;;;;;;;4.40;96.50;;;;;;5046991;28;19913;-69
2022/01/08 12:12:45;;;;;;;;;;;4.40;96.50;;;;;;5024910;28;19944;-68
2022/01/08 12:15:11;;;;;;;;;;;4.40;96.40;;;;;;5048986;28;19917;-68
2022/01/08 12:17:56;;;;;;;;;;;4.40;96.40;;;;;;5050928;28;20063;-68
2022/01/08 12:20:45;;;;;;;;;;;4.50;96.40;;;;;;5060997;28;19917;-68
2022/01/08 12:23:25;;;;;;;;;;;4.50;96.30;;;;;;5043631;28;19909;-68
2022/01/08 12:25:51;;;;;;;;;;;4.50;96.30;;;;;;5047686;28;20526;-68
2022/01/08 12:28:38;;;;;;;;;;;4.50;96.30;;;;;;5051650;28;19913;-69
2022/01/08 12:31:23;;;;;;;;;;;4.50;96.30;;;;;;5048173;28;19913;-68
2022/01/08 12:34:07;;;;;;;;;;;4.60;96.20;;;;;;5045358;28;19919;-68
2022/01/08 12:36:33;;;;;;;;;;;4.60;96.10;;;;;;5043270;28;19929;-68
2022/01/08 12:39:05;;;;;;;;;;;4.60;96.10;;;;;;5051468;28;19940;-68
2022/01/08 12:41:31;;;;;;;;;;;4.60;96.10;;;;;;5042977;28;19913;-69
2022/01/08 12:44:16;;;;;;;;;;;4.70;96.00;;;;;;5027333;28;19927;-68
2022/01/08 12:46:41;;;;;;;;;;;4.70;96.00;;;;;;5048138;28;19917;-68
2022/01/08 12:49:09;;;;;;;;;;;4.70;95.90;;;;;;5049577;28;20251;-68
2022/01/08 12:51:49;;;;;;;;;;;4.70;95.90;;;;;;5057181;28;19912;-68
2022/01/08 12:54:17;;;;;;;;;;;4.70;96.00;;;;;;5043916;28;20290;-68
2022/01/08 12:56:47;;;;;;;;;;;4.70;95.90;;;;;;5046978;28;19920;-68
2022/01/08 12:59:12;;;;;;;;;;;4.70;95.90;;;;;;5034519;28;20501;-69
2022/01/08 13:01:40;;;;;;;;;;;4.70;96.00;;;;;;5047994;28;19923;-68
2022/01/08 13:04:15;;;;;;;;;;;4.70;96.00;;;;;;5048051;28;19947;-68
2022/01/08 13:06:40;;;;;;;;;;;4.80;95.90;;;;;;5028004;28;20043;-69
2022/01/08 13:09:07;;;;;;;;;;;4.80;95.90;;;;;;5050469;28;20042;-69
2022/01/08 13:11:33;;;;;;;;;;;4.80;95.90;;;;;;5046351;28;19920;-68
2022/01/08 13:14:05;;;;;;;;;;;4.80;96.00;;;;;;5049251;28;20042;-69
2022/01/08 13:16:38;;;;;;;;;;;4.80;96.00;;;;;;5046247;28;19917;-68
2022/01/08 13:19:11;;;;;;;;;;;4.80;96.10;;;;;;5034469;28;19909;-68
2022/01/08 13:21:42;;;;;;;;;;;4.70;96.10;;;;;;5045127;28;19984;-68
2022/01/08 13:24:15;;;;;;;;;;;4.70;96.10;;;;;;5048243;28;19916;-68
2022/01/08 13:26:42;;;;;;;;;;;4.70;96.20;;;;;;5045966;28;20507;-69
2022/01/08 13:29:19;;;;;;;;;;;4.80;96.10;;;;;;5049291;28;19917;-69
2022/01/08 13:31:49;;;;;;;;;;;4.70;96.10;;;;;;5046219;28;20349;-69
2022/01/08 13:34:15;;;;;;;;;;;4.70;96.10;;;;;;5047984;28;19916;-69
2022/01/08 13:36:59;;;;;;;;;;;4.70;96.20;;;;;;5049183;28;20008;-69
2022/01/08 13:39:26;;;;;;;;;;;4.70;96.20;;;;;;5047595;28;19912;-68
2022/01/08 13:42:04;;;;;;;;;;;4.70;96.20;;;;;;5042925;28;19917;-69
2022/01/08 13:44:30;;;;;;;;;;;4.70;96.20;;;;;;5048266;28;19916;-69
2022/01/08 13:46:55;;;;;;;;;;;4.70;96.10;;;;;;5038915;28;19921;-68
2022/01/08 13:49:21;;;;;;;;;;;4.70;96.10;;;;;;5046130;28;19917;-69
2022/01/08 13:51:47;;;;;;;;;;;4.70;96.10;;;;;;5046959;28;19940;-69
2022/01/08 13:54:12;;;;;;;;;;;4.70;96.00;;;;;;5042165;28;19956;-68
2022/01/08 13:56:38;;;;;;;;;;;4.70;96.20;;;;;;5048491;28;20274;-69
2022/01/08 13:59:17;;;;;;;;;;;4.70;96.10;;;;;;5045554;28;19967;-69
2022/01/08 14:01:44;;;;;;;;;;;4.70;96.20;;;;;;5056463;28;19916;-69
2022/01/08 14:04:11;;;;;;;;;;;4.70;96.20;;;;;;5027002;28;19917;-69
2022/01/08 14:06:37;;;;;;;;;;;4.60;96.20;;;;;;5051363;28;19913;-69
2022/01/08 14:09:03;;;;;;;;;;;4.60;96.10;;;;;;5048963;28;20440;-68
2022/01/08 14:11:29;;;;;;;;;;;4.60;96.10;;;;;;5052325;28;20412;-68
2022/01/08 14:13:56;;;;;;;;;;;4.60;96.10;;;;;;5048310;28;19916;-69
2022/01/08 14:16:28;;;;;;;;;;;4.60;96.00;;;;;;5061852;28;19913;-69
2022/01/08 14:19:04;;;;;;;;;;;4.60;96.20;;;;;;5048283;28;20433;-68
2022/01/08 14:21:30;;;;;;;;;;;4.70;96.20;;;;;;5050786;28;19917;-68
2022/01/08 14:23:55;;;;;;;;;;;4.60;96.10;;;;;;5047340;28;19917;-69
2022/01/08 14:26:22;;;;;;;;;;;4.60;96.10;;;;;;5051266;28;21143;-69
2022/01/08 14:29:06;;;;;;;;;;;4.60;96.00;;;;;;5054729;28;19917;-69
2022/01/08 14:31:32;;;;;;;;;;;4.60;96.10;;;;;;5045059;28;20239;-69
2022/01/08 14:33:59;;;;;;;;;;;4.60;96.10;;;;;;5046894;28;20317;-68
2022/01/08 14:36:24;;;;;;;;;;;4.60;96.10;;;;;;5047964;28;19914;-69
2022/01/08 14:38:50;;;;;;;;;;;4.60;96.00;;;;;;5049596;28;19917;-69
2022/01/08 14:41:29;;;;;;;;;;;4.50;96.00;;;;;;5050409;28;19917;-68
2022/01/08 14:44:01;;;;;;;;;;;4.50;96.10;;;;;;5049803;28;19920;-68
2022/01/08 14:46:27;;;;;;;;;;;4.50;96.00;;;;;;5045683;28;19939;-68
2022/01/08 14:48:53;;;;;;;;;;;4.50;96.00;;;;;;5049150;28;20281;-68
2022/01/08 14:51:18;;;;;;;;;;;4.50;96.00;;;;;;5045594;28;19966;-68
2022/01/08 14:53:44;;;;;;;;;;;4.50;96.20;;;;;;5047462;28;19913;-69
2022/01/08 14:56:09;;;;;;;;;;;4.50;96.10;;;;;;5047793;28;19967;-68